createdAt,value
2018-06-28T00:01:52.484Z,100.00
2018-06-28T00:04:21.684Z,100.00
2018-06-28T00:06:51.405Z,100.00
2018-06-28T00:09:20.582Z,100.00
2018-06-28T00:11:49.840Z,100.00
2018-06-28T00:14:18.992Z,100.00
2018-06-28T00:16:48.204Z,100.00
2018-06-28T00:19:17.378Z,100.00
2018-06-28T00:21:46.594Z,100.00
2018-06-28T00:24:15.809Z,100.00
2018-06-28T00:26:44.919Z,100.00
2018-06-28T00:29:14.166Z,100.00
2018-06-28T00:31:43.446Z,100.00
2018-06-28T00:34:12.277Z,100.00
2018-06-28T00:36:41.024Z,100.00
2018-06-28T00:39:10.966Z,100.00
2018-06-28T00:41:40.266Z,100.00
2018-06-28T00:44:09.540Z,100.00
2018-06-28T00:46:38.249Z,100.00
2018-06-28T00:49:07.447Z,100.00
2018-06-28T00:51:36.171Z,100.00
2018-06-28T00:54:04.945Z,100.00
2018-06-28T00:56:33.663Z,100.00
2018-06-28T00:59:02.391Z,100.00
2018-06-28T01:01:31.513Z,100.00
2018-06-28T01:04:00.702Z,100.00
2018-06-28T01:06:29.993Z,100.00
2018-06-28T01:08:59.188Z,100.00
2018-06-28T01:11:28.398Z,100.00
2018-06-28T01:13:57.609Z,100.00
2018-06-28T01:16:26.582Z,100.00
2018-06-28T01:18:55.629Z,100.00
2018-06-28T01:21:24.325Z,100.00
2018-06-28T01:23:53.029Z,100.00
2018-06-28T01:26:21.765Z,100.00
2018-06-28T01:28:50.589Z,100.00
2018-06-28T01:31:19.715Z,100.00
2018-06-28T01:33:49.026Z,100.00
2018-06-28T01:36:18.226Z,100.00
2018-06-28T01:38:47.446Z,100.00
2018-06-28T01:41:16.532Z,100.00
2018-06-28T01:43:46.466Z,100.00
2018-06-28T01:46:16.207Z,100.00
2018-06-28T01:48:45.683Z,100.00
2018-06-28T01:51:14.942Z,100.00
2018-06-28T01:53:44.159Z,100.00
2018-06-28T01:56:13.345Z,100.00
2018-06-28T01:58:42.546Z,100.00
2018-06-28T02:01:11.739Z,100.00
2018-06-28T02:03:41.223Z,100.00
2018-06-28T02:06:10.241Z,100.00
2018-06-28T02:08:39.229Z,100.00
2018-06-28T02:11:08.429Z,100.00
2018-06-28T02:13:37.642Z,100.00
2018-06-28T02:16:06.871Z,100.00
2018-06-28T02:18:36.047Z,100.00
2018-06-28T02:21:05.347Z,100.00
2018-06-28T02:23:34.572Z,100.00
2018-06-28T02:26:03.746Z,100.00
2018-06-28T02:28:32.861Z,100.00
2018-06-28T02:31:02.117Z,100.00
2018-06-28T02:33:31.030Z,100.00
2018-06-28T02:35:59.742Z,100.00
2018-06-28T02:38:28.897Z,100.00
2018-06-28T02:40:58.102Z,100.00
2018-06-28T02:43:27.398Z,100.00
2018-06-28T02:45:56.695Z,100.00
2018-06-28T02:48:25.611Z,100.00
2018-06-28T02:50:54.622Z,100.00
2018-06-28T02:53:23.687Z,100.00
2018-06-28T02:55:52.687Z,100.00
2018-06-28T02:58:21.909Z,100.00
2018-06-28T03:00:50.875Z,100.00
2018-06-28T03:03:20.177Z,100.00
2018-06-28T03:05:49.081Z,100.00
2018-06-28T03:08:18.271Z,100.00
2018-06-28T03:10:47.261Z,100.00
2018-06-28T03:13:16.570Z,100.00
2018-06-28T03:15:45.738Z,100.00
2018-06-28T03:18:14.933Z,100.00
2018-06-28T03:20:44.177Z,100.00
2018-06-28T03:23:13.232Z,100.00
2018-06-28T03:25:42.462Z,100.00
2018-06-28T03:28:11.621Z,100.00
2018-06-28T03:30:40.851Z,100.00
2018-06-28T03:33:10.031Z,100.00
2018-06-28T03:35:39.221Z,100.00
2018-06-28T03:38:08.562Z,100.00
2018-06-28T03:40:37.829Z,100.00
2018-06-28T03:43:07.046Z,100.00
2018-06-28T03:45:36.238Z,100.00
2018-06-28T03:48:05.430Z,100.00
2018-06-28T03:50:34.452Z,100.00
2018-06-28T03:53:03.614Z,100.00
2018-06-28T03:55:32.815Z,100.00
2018-06-28T03:58:02.384Z,100.00
2018-06-28T04:00:31.540Z,100.00
2018-06-28T04:03:00.750Z,100.00
2018-06-28T04:05:29.450Z,100.00
2018-06-28T04:07:58.493Z,100.00
2018-06-28T04:10:27.554Z,100.00
2018-06-28T04:12:56.691Z,100.00
2018-06-28T04:15:25.726Z,100.00
2018-06-28T04:17:54.929Z,100.00
2018-06-28T04:20:24.106Z,100.00
2018-06-28T04:22:53.283Z,100.00
2018-06-28T04:25:22.492Z,100.00
2018-06-28T04:27:51.689Z,100.00
2018-06-28T04:30:20.919Z,100.00
2018-06-28T04:32:50.098Z,100.00
2018-06-28T04:35:19.561Z,100.00
2018-06-28T04:37:48.778Z,100.00
2018-06-28T04:40:17.974Z,100.00
2018-06-28T04:42:47.274Z,100.00
2018-06-28T04:45:16.578Z,100.00
2018-06-28T04:47:45.306Z,99.49
2018-06-28T04:50:14.022Z,100.00
2018-06-28T04:52:42.763Z,99.60
2018-06-28T04:55:11.462Z,99.59
2018-06-28T04:57:40.558Z,98.32
2018-06-28T05:00:09.717Z,96.87
2018-06-28T05:02:38.910Z,97.29
2018-06-28T05:05:08.105Z,95.60
2018-06-28T05:07:37.217Z,96.77
2018-06-28T05:10:06.554Z,95.36
2018-06-28T05:12:35.813Z,94.92
2018-06-28T05:15:05.013Z,94.37
2018-06-28T05:17:34.218Z,93.21
2018-06-28T05:20:03.401Z,93.65
2018-06-28T05:22:32.639Z,91.94
2018-06-28T05:25:01.808Z,91.44
2018-06-28T05:27:31.007Z,91.65
2018-06-28T05:30:00.415Z,92.32
2018-06-28T05:32:29.369Z,91.42
2018-06-28T05:34:58.642Z,89.55
2018-06-28T05:37:28.005Z,87.40
2018-06-28T05:39:57.310Z,85.99
2018-06-28T05:42:26.422Z,85.26
2018-06-28T05:44:55.593Z,83.18
2018-06-28T05:47:24.827Z,79.53
2018-06-28T05:49:54.087Z,76.36
2018-06-28T05:52:23.328Z,73.77
2018-06-28T05:54:52.504Z,69.69
2018-06-28T05:57:21.685Z,69.50
2018-06-28T05:59:50.920Z,67.83
2018-06-28T06:02:20.077Z,69.17
2018-06-28T06:04:49.277Z,67.36
2018-06-28T06:07:18.478Z,58.75
2018-06-28T06:09:47.735Z,47.61
2018-06-28T06:12:16.930Z,42.07
2018-06-28T06:14:46.204Z,42.44
2018-06-28T06:17:15.382Z,44.41
2018-06-28T06:19:44.578Z,47.87
2018-06-28T06:22:13.775Z,54.78
2018-06-28T06:24:42.965Z,56.78
2018-06-28T06:27:12.178Z,57.69
2018-06-28T06:29:41.437Z,58.47
2018-06-28T06:32:10.627Z,59.40
2018-06-28T06:34:39.853Z,59.49
2018-06-28T06:37:09.092Z,59.12
2018-06-28T06:39:38.053Z,57.56
2018-06-28T06:42:07.256Z,57.85
2018-06-28T06:44:36.284Z,59.02
2018-06-28T06:47:05.333Z,59.26
2018-06-28T06:49:34.640Z,57.99
2018-06-28T06:52:03.899Z,56.60
2018-06-28T06:54:33.094Z,57.97
2018-06-28T06:57:02.261Z,57.79
2018-06-28T06:59:31.523Z,57.86
2018-06-28T07:02:00.657Z,59.13
2018-06-28T07:04:29.864Z,59.86
2018-06-28T07:06:59.045Z,61.02
2018-06-28T07:09:28.293Z,63.13
2018-06-28T07:11:57.315Z,63.46
2018-06-28T07:14:26.525Z,65.30
2018-06-28T07:16:55.727Z,66.46
2018-06-28T07:19:24.936Z,63.76
2018-06-28T07:21:54.008Z,62.39
2018-06-28T07:24:23.119Z,61.60
2018-06-28T07:26:52.427Z,62.99
2018-06-28T07:29:21.722Z,61.15
2018-06-28T07:31:51.050Z,60.67
2018-06-28T07:34:20.166Z,59.87
2018-06-28T07:36:49.447Z,58.40
2018-06-28T07:39:18.646Z,59.33
2018-06-28T07:41:47.822Z,58.60
2018-06-28T07:44:17.001Z,61.34
2018-06-28T07:46:46.237Z,59.31
2018-06-28T07:49:19.554Z,59.00
2018-06-28T07:51:49.034Z,57.70
2018-06-28T07:54:18.535Z,57.85
2018-06-28T07:56:47.536Z,58.59
2018-06-28T07:59:16.243Z,58.26
2018-06-28T08:01:44.950Z,56.63
2018-06-28T08:04:14.221Z,56.72
2018-06-28T08:06:42.918Z,56.18
2018-06-28T08:09:11.612Z,55.50
2018-06-28T08:11:40.752Z,52.68
2018-06-28T08:14:09.787Z,47.69
2018-06-28T08:16:39.039Z,47.55
2018-06-28T08:19:08.098Z,44.69
2018-06-28T08:21:37.217Z,45.82
2018-06-28T08:24:06.353Z,46.51
2018-06-28T08:26:35.562Z,47.58
2018-06-28T08:29:04.713Z,51.48
2018-06-28T08:31:33.957Z,53.88
2018-06-28T08:34:03.227Z,58.22
2018-06-28T08:36:32.681Z,60.41
2018-06-28T08:39:01.826Z,63.54
2018-06-28T08:41:31.086Z,62.47
2018-06-28T08:44:00.209Z,61.28
2018-06-28T08:46:29.530Z,60.44
2018-06-28T08:48:58.984Z,58.63
2018-06-28T08:51:28.121Z,57.71
2018-06-28T08:53:57.353Z,58.35
2018-06-28T08:56:26.424Z,56.89
2018-06-28T08:58:55.626Z,57.22
2018-06-28T09:01:24.967Z,56.22
2018-06-28T09:03:54.142Z,56.20
2018-06-28T09:06:23.222Z,55.58
2018-06-28T09:08:52.408Z,53.02
2018-06-28T09:11:21.613Z,51.43
2018-06-28T09:13:50.845Z,47.33
2018-06-28T09:16:20.014Z,42.86
2018-06-28T09:18:49.240Z,40.35
2018-06-28T09:21:18.573Z,35.24
2018-06-28T09:23:47.701Z,36.35
2018-06-28T09:26:16.847Z,36.43
2018-06-28T09:28:46.909Z,36.93
2018-06-28T09:31:16.229Z,38.83
2018-06-28T09:33:45.563Z,42.48
2018-06-28T09:36:14.571Z,45.36
2018-06-28T09:38:43.494Z,47.02
2018-06-28T09:41:12.810Z,51.62
2018-06-28T09:43:42.112Z,49.46
2018-06-28T09:46:11.551Z,48.00
2018-06-28T09:48:40.664Z,48.84
2018-06-28T09:51:09.872Z,47.17
2018-06-28T09:53:38.912Z,48.40
2018-06-28T09:56:08.341Z,49.60
2018-06-28T09:58:37.501Z,49.14
2018-06-28T10:01:06.807Z,46.77
2018-06-28T10:03:36.047Z,45.96
2018-06-28T10:06:05.186Z,45.14
2018-06-28T10:08:34.293Z,45.95
2018-06-28T10:11:03.503Z,45.43
2018-06-28T10:13:32.699Z,45.98
2018-06-28T10:16:01.933Z,45.18
2018-06-28T10:18:30.981Z,42.45
2018-06-28T10:21:00.042Z,43.31
2018-06-28T10:23:29.466Z,43.49
2018-06-28T10:25:58.499Z,45.19
2018-06-28T10:28:27.533Z,47.66
2018-06-28T10:30:56.519Z,50.24
2018-06-28T10:33:25.677Z,49.87
2018-06-28T10:35:54.875Z,52.06
2018-06-28T10:38:24.055Z,55.20
2018-06-28T10:40:53.345Z,55.06
2018-06-28T10:43:22.471Z,57.08
2018-06-28T10:45:51.643Z,56.33
2018-06-28T10:48:20.906Z,56.91
2018-06-28T10:50:50.058Z,60.18
2018-06-28T10:53:19.136Z,61.31
2018-06-28T10:55:48.283Z,60.84
2018-06-28T10:58:17.444Z,59.83
2018-06-28T11:00:46.675Z,62.19
2018-06-28T11:03:15.846Z,62.04
2018-06-28T11:05:45.059Z,62.29
2018-06-28T11:08:14.253Z,62.39
2018-06-28T11:10:43.453Z,63.16
2018-06-28T11:13:12.653Z,63.96
2018-06-28T11:15:41.958Z,67.43
2018-06-28T11:18:11.154Z,70.72
2018-06-28T11:20:40.326Z,70.43
2018-06-28T11:23:09.527Z,73.76
2018-06-28T11:25:38.666Z,76.98
2018-06-28T11:28:07.818Z,80.67
2018-06-28T11:30:37.126Z,85.28
2018-06-28T11:33:06.432Z,87.87
2018-06-28T11:35:35.722Z,91.93
2018-06-28T11:38:05.036Z,92.51
2018-06-28T11:40:34.230Z,93.31
2018-06-28T11:43:03.763Z,94.57
2018-06-28T11:45:32.939Z,94.82
2018-06-28T11:48:02.778Z,96.59
2018-06-28T11:50:32.165Z,98.58
2018-06-28T11:53:01.233Z,98.00
2018-06-28T11:55:30.325Z,98.27
2018-06-28T11:57:59.620Z,100.00
2018-06-28T12:00:29.065Z,100.00
2018-06-28T12:02:58.335Z,100.00
2018-06-28T12:05:27.400Z,100.00
2018-06-28T12:07:56.685Z,100.00
2018-06-28T12:10:25.985Z,100.00
2018-06-28T12:12:54.979Z,100.00
2018-06-28T12:15:24.125Z,100.00
2018-06-28T12:17:53.169Z,100.00
2018-06-28T12:20:21.985Z,100.00
2018-06-28T12:22:50.832Z,100.00
2018-06-28T12:25:19.678Z,100.00
2018-06-28T12:27:48.441Z,100.00
2018-06-28T12:30:17.241Z,100.00
2018-06-28T12:32:46.018Z,100.00
2018-06-28T12:35:14.907Z,100.00
2018-06-28T12:37:44.097Z,100.00
2018-06-28T12:40:12.859Z,100.00
2018-06-28T12:42:41.753Z,100.00
2018-06-28T12:45:10.490Z,100.00
2018-06-28T12:47:51.637Z,100.00
2018-06-28T12:50:20.501Z,100.00
2018-06-28T12:52:57.334Z,100.00
2018-06-28T12:55:26.768Z,100.00
2018-06-28T12:57:57.783Z,100.00
2018-06-28T13:00:26.520Z,100.00
2018-06-28T13:02:55.295Z,100.00
2018-06-28T13:05:24.069Z,100.00
2018-06-28T13:07:52.850Z,100.00
2018-06-28T13:10:21.619Z,100.00
2018-06-28T13:12:50.398Z,99.55
2018-06-28T13:15:19.153Z,97.15
2018-06-28T13:17:47.893Z,95.85
2018-06-28T13:20:19.983Z,94.69
2018-06-28T13:22:48.821Z,92.81
2018-06-28T13:25:17.590Z,92.70
2018-06-28T13:27:46.377Z,91.63
2018-06-28T13:30:15.839Z,89.41
2018-06-28T13:32:44.663Z,90.65
2018-06-28T13:35:13.584Z,92.17
2018-06-28T13:37:45.148Z,91.87
2018-06-28T13:40:19.142Z,90.70
2018-06-28T13:42:51.389Z,91.32
2018-06-28T13:45:23.703Z,92.42
2018-06-28T13:47:52.594Z,93.05
2018-06-28T13:50:21.385Z,92.20
2018-06-28T13:52:50.103Z,93.12
2018-06-28T13:55:18.903Z,93.31
2018-06-28T13:57:47.935Z,94.14
2018-06-28T14:00:16.974Z,90.70
2018-06-28T14:02:46.197Z,91.12
2018-06-28T14:05:15.419Z,88.95
2018-06-28T14:07:44.646Z,87.76
2018-06-28T14:10:14.209Z,88.68
2018-06-28T14:12:43.279Z,87.70
2018-06-28T14:15:12.475Z,88.51
2018-06-28T14:17:41.674Z,88.32
2018-06-28T14:20:11.102Z,87.90
2018-06-28T14:22:40.405Z,87.37
2018-06-28T14:25:09.851Z,87.32
2018-06-28T14:27:39.043Z,85.25
2018-06-28T14:30:09.763Z,84.70
2018-06-28T14:32:38.810Z,85.53
2018-06-28T14:35:08.211Z,85.26
2018-06-28T14:37:37.465Z,85.19
2018-06-28T14:40:06.882Z,83.72
2018-06-28T14:42:36.267Z,81.95
2018-06-28T14:45:05.477Z,79.92
2018-06-28T14:47:34.854Z,76.95
2018-06-28T14:50:04.079Z,78.62
2018-06-28T14:52:33.209Z,77.39
2018-06-28T14:55:02.672Z,76.79
2018-06-28T14:57:31.709Z,77.73
2018-06-28T15:00:00.727Z,76.30
2018-06-28T15:02:29.780Z,74.26
2018-06-28T15:04:59.095Z,72.97
2018-06-28T15:07:28.357Z,74.46
2018-06-28T15:09:57.465Z,74.53
2018-06-28T15:12:26.691Z,74.75
2018-06-28T15:14:55.906Z,74.18
2018-06-28T15:17:25.073Z,74.34
2018-06-28T15:19:54.231Z,75.17
2018-06-28T15:22:23.398Z,76.71
2018-06-28T15:24:52.634Z,77.90
2018-06-28T15:27:21.781Z,78.06
2018-06-28T15:29:51.085Z,77.31
2018-06-28T15:32:20.240Z,78.81
2018-06-28T15:34:49.373Z,77.43
2018-06-28T15:37:18.562Z,77.18
2018-06-28T15:39:47.921Z,77.55
2018-06-28T15:42:17.285Z,75.58
2018-06-28T15:44:46.421Z,79.88
2018-06-28T15:47:15.568Z,79.79
2018-06-28T15:49:44.913Z,80.97
2018-06-28T15:52:14.069Z,78.93
2018-06-28T15:54:43.261Z,79.15
2018-06-28T15:57:12.574Z,77.50
2018-06-28T15:59:41.776Z,77.12
2018-06-28T16:02:10.494Z,78.56
2018-06-28T16:04:39.216Z,80.41
2018-06-28T16:07:08.094Z,78.95
2018-06-28T16:09:36.861Z,79.88
2018-06-28T16:12:05.890Z,81.54
2018-06-28T16:14:34.643Z,80.76
2018-06-28T16:17:03.485Z,82.99
2018-06-28T16:19:32.222Z,81.52
2018-06-28T16:22:00.912Z,82.21
2018-06-28T16:24:29.602Z,81.57
2018-06-28T16:26:58.298Z,82.82
2018-06-28T16:29:27.164Z,83.78
2018-06-28T16:31:56.035Z,84.36
2018-06-28T16:34:24.733Z,83.38
2018-06-28T16:36:53.719Z,82.13
2018-06-28T16:39:22.450Z,82.06
2018-06-28T16:41:51.181Z,83.75
2018-06-28T16:44:19.890Z,83.48
2018-06-28T16:46:48.625Z,85.99
2018-06-28T16:49:17.362Z,83.10
2018-06-28T16:51:46.088Z,86.23
2018-06-28T16:54:14.809Z,86.86
2018-06-28T16:56:43.700Z,86.50
2018-06-28T16:59:12.438Z,86.37
2018-06-28T17:01:41.349Z,88.10
2018-06-28T17:04:10.075Z,90.03
2018-06-28T17:06:39.034Z,92.60
2018-06-28T17:09:09.075Z,91.65
2018-06-28T17:11:37.933Z,91.91
2018-06-28T17:14:07.370Z,92.84
2018-06-28T17:16:36.232Z,92.15
2018-06-28T17:19:05.530Z,93.49
2018-06-28T17:21:34.252Z,92.85
2018-06-28T17:24:02.977Z,92.77
2018-06-28T17:26:31.746Z,92.92
2018-06-28T17:29:00.488Z,90.59
2018-06-28T17:31:29.369Z,91.04
2018-06-28T17:33:58.117Z,90.90
2018-06-28T17:36:26.865Z,92.72
2018-06-28T17:38:55.643Z,93.49
2018-06-28T17:41:24.478Z,95.18
2018-06-28T17:43:53.355Z,94.79
2018-06-28T17:46:22.133Z,96.64
2018-06-28T17:48:50.887Z,96.79
2018-06-28T17:51:19.642Z,97.38
2018-06-28T17:53:48.790Z,97.95
2018-06-28T17:56:17.598Z,99.38
2018-06-28T17:58:46.323Z,99.54
2018-06-28T18:01:15.098Z,99.88
2018-06-28T18:03:43.845Z,100.00
2018-06-28T18:06:12.600Z,100.00
2018-06-28T18:08:41.378Z,100.00
2018-06-28T18:11:10.140Z,100.00
2018-06-28T18:13:38.900Z,100.00
2018-06-28T18:16:07.683Z,100.00
2018-06-28T18:18:36.436Z,100.00
2018-06-28T18:21:05.237Z,100.00
2018-06-28T18:23:34.042Z,100.00
2018-06-28T18:26:02.773Z,100.00
2018-06-28T18:28:31.522Z,100.00
2018-06-28T18:31:00.233Z,100.00
2018-06-28T18:33:28.982Z,100.00
2018-06-28T18:35:57.778Z,100.00
2018-06-28T18:38:26.623Z,100.00
2018-06-28T18:40:55.451Z,100.00
2018-06-28T18:43:24.222Z,100.00
2018-06-28T18:45:53.184Z,100.00
2018-06-28T18:48:22.132Z,100.00
2018-06-28T18:50:51.003Z,100.00
2018-06-28T18:53:19.714Z,100.00
2018-06-28T18:55:48.794Z,100.00
2018-06-28T18:58:17.527Z,100.00
2018-06-28T19:00:46.319Z,100.00
2018-06-28T19:03:15.050Z,100.00
2018-06-28T19:05:43.815Z,100.00
2018-06-28T19:08:12.548Z,100.00
2018-06-28T19:10:46.394Z,100.00
2018-06-28T19:13:15.173Z,100.00
2018-06-28T19:15:48.933Z,100.00
2018-06-28T19:18:17.798Z,100.00
2018-06-28T19:20:50.607Z,100.00
2018-06-28T19:23:51.188Z,100.00
2018-06-28T19:26:20.282Z,100.00
2018-06-28T19:28:49.637Z,100.00
2018-06-28T19:31:23.604Z,100.00
2018-06-28T19:33:52.385Z,100.00
2018-06-28T19:36:21.260Z,100.00
2018-06-28T19:38:55.053Z,100.00
2018-06-28T19:41:29.056Z,100.00
2018-06-28T19:43:57.743Z,100.00
2018-06-28T19:46:26.504Z,100.00
2018-06-28T19:48:55.249Z,100.00
2018-06-28T19:51:30.877Z,100.00
2018-06-28T19:54:02.559Z,100.00
2018-06-28T19:56:31.544Z,100.00
2018-06-28T19:59:00.296Z,100.00
2018-06-28T20:01:34.493Z,100.00
2018-06-28T20:04:08.366Z,100.00
2018-06-28T20:06:37.095Z,100.00
2018-06-28T20:09:08.451Z,100.00
2018-06-28T20:11:37.282Z,100.00
2018-06-28T20:14:11.229Z,100.00
2018-06-28T20:16:45.218Z,100.00
2018-06-28T20:19:19.070Z,100.00
2018-06-28T20:21:47.912Z,100.00
2018-06-28T20:24:16.681Z,100.00
2018-06-28T20:26:50.597Z,100.00
2018-06-28T20:29:24.529Z,100.00
2018-06-28T20:31:58.392Z,100.00
2018-06-28T20:34:27.186Z,100.00
2018-06-28T20:36:55.960Z,100.00
2018-06-28T20:39:24.779Z,100.00
2018-06-28T20:41:53.789Z,100.00
2018-06-28T20:44:22.733Z,100.00
2018-06-28T20:46:51.556Z,100.00
2018-06-28T20:49:20.444Z,100.00
2018-06-28T20:51:49.199Z,100.00
2018-06-28T20:54:18.400Z,100.00
2018-06-28T20:56:47.229Z,100.00
2018-06-28T20:59:16.047Z,100.00
2018-06-28T21:01:44.848Z,100.00
2018-06-28T21:04:13.630Z,100.00
2018-06-28T21:06:42.344Z,100.00
2018-06-28T21:09:11.081Z,100.00
2018-06-28T21:11:39.824Z,100.00
2018-06-28T21:14:08.579Z,100.00
2018-06-28T21:16:37.322Z,100.00
2018-06-28T21:19:06.124Z,100.00
2018-06-28T21:21:34.896Z,100.00
2018-06-28T21:24:03.631Z,100.00
2018-06-28T21:26:32.367Z,100.00
2018-06-28T21:29:01.090Z,100.00
2018-06-28T21:31:29.793Z,100.00
2018-06-28T21:33:58.531Z,100.00
2018-06-28T21:36:27.294Z,100.00
2018-06-28T21:38:56.011Z,100.00
2018-06-28T21:41:24.821Z,100.00
2018-06-28T21:43:53.853Z,100.00
2018-06-28T21:46:22.748Z,100.00
2018-06-28T21:48:51.541Z,100.00
2018-06-28T21:51:20.246Z,100.00
2018-06-28T21:53:48.997Z,100.00
2018-06-28T21:56:17.684Z,100.00
2018-06-28T21:58:46.402Z,100.00
2018-06-28T22:01:15.125Z,100.00
2018-06-28T22:03:43.834Z,100.00
2018-06-28T22:06:12.560Z,100.00
2018-06-28T22:08:41.278Z,100.00
2018-06-28T22:11:10.017Z,100.00
2018-06-28T22:13:38.697Z,100.00
2018-06-28T22:16:07.431Z,100.00
2018-06-28T22:18:36.149Z,100.00
2018-06-28T22:21:04.861Z,100.00
2018-06-28T22:23:33.611Z,100.00
2018-06-28T22:26:02.325Z,100.00
2018-06-28T22:28:31.075Z,100.00
2018-06-28T22:30:59.800Z,100.00
2018-06-28T22:33:28.501Z,100.00
2018-06-28T22:35:57.239Z,100.00
2018-06-28T22:38:25.959Z,100.00
2018-06-28T22:40:54.698Z,100.00
2018-06-28T22:43:23.447Z,100.00
2018-06-28T22:45:52.173Z,100.00
2018-06-28T22:48:20.908Z,100.00
2018-06-28T22:50:49.606Z,100.00
2018-06-28T22:53:18.301Z,100.00
2018-06-28T22:55:47.078Z,100.00
2018-06-28T22:58:15.776Z,100.00
2018-06-28T23:00:44.487Z,100.00
2018-06-28T23:03:13.234Z,100.00
2018-06-28T23:05:41.979Z,100.00
2018-06-28T23:08:10.916Z,100.00
2018-06-28T23:10:39.625Z,100.00
2018-06-28T23:13:08.337Z,100.00
2018-06-28T23:15:37.029Z,100.00
2018-06-28T23:18:05.839Z,100.00
2018-06-28T23:20:34.548Z,100.00
2018-06-28T23:23:03.254Z,100.00
2018-06-28T23:25:32.082Z,100.00
2018-06-28T23:28:00.833Z,100.00
2018-06-28T23:30:29.530Z,100.00
2018-06-28T23:32:58.288Z,100.00
2018-06-28T23:35:27.456Z,100.00
2018-06-28T23:37:56.201Z,100.00
2018-06-28T23:40:24.917Z,100.00
2018-06-28T23:42:53.629Z,100.00
2018-06-28T23:45:22.336Z,100.00
2018-06-28T23:47:51.079Z,100.00
2018-06-28T23:50:19.849Z,100.00
2018-06-28T23:52:48.547Z,100.00
2018-06-28T23:55:17.259Z,100.00
2018-06-28T23:57:45.999Z,100.00
